sensor_id;sensor_type;location;lat;lon;timestamp;pressure;altitude;pressure_sealevel;temperature
22269;BMP280;11303;50.772;19.670;2023-12-20T00:00:54;98289.09;;;4.28
22269;BMP280;11303;50.772;19.670;2023-12-20T00:02:56;98287.59;;;4.27
22269;BMP280;11303;50.772;19.670;2023-12-20T00:04:58;98282.75;;;4.25
22269;BMP280;11303;50.772;19.670;2023-12-20T00:07:00;98280.03;;;4.22
22269;BMP280;11303;50.772;19.670;2023-12-20T00:09:02;98277.44;;;4.22
22269;BMP280;11303;50.772;19.670;2023-12-20T00:11:03;98267.91;;;4.22
22269;BMP280;11303;50.772;19.670;2023-12-20T00:13:05;98262.34;;;4.20
22269;BMP280;11303;50.772;19.670;2023-12-20T00:15:08;98273.69;;;4.19
22269;BMP280;11303;50.772;19.670;2023-12-20T00:17:10;98268.84;;;4.17
22269;BMP280;11303;50.772;19.670;2023-12-20T00:19:12;98270.19;;;4.15
22269;BMP280;11303;50.772;19.670;2023-12-20T00:21:13;98273.06;;;4.13
22269;BMP280;11303;50.772;19.670;2023-12-20T00:23:15;98269.00;;;4.12
22269;BMP280;11303;50.772;19.670;2023-12-20T00:25:17;98278.50;;;4.12
22269;BMP280;11303;50.772;19.670;2023-12-20T00:27:19;98274.44;;;4.11
22269;BMP280;11303;50.772;19.670;2023-12-20T00:29:21;98279.56;;;4.11
22269;BMP280;11303;50.772;19.670;2023-12-20T00:31:22;98278.81;;;4.10
22269;BMP280;11303;50.772;19.670;2023-12-20T00:33:24;98275.03;;;4.08
22269;BMP280;11303;50.772;19.670;2023-12-20T00:35:26;98269.13;;;4.07
22269;BMP280;11303;50.772;19.670;2023-12-20T00:37:27;98267.63;;;4.06
22269;BMP280;11303;50.772;19.670;2023-12-20T00:39:29;98255.81;;;4.05
22269;BMP280;11303;50.772;19.670;2023-12-20T00:41:31;98261.84;;;4.00
22269;BMP280;11303;50.772;19.670;2023-12-20T00:43:32;98257.16;;;4.02
22269;BMP280;11303;50.772;19.670;2023-12-20T00:45:34;98250.06;;;3.99
22269;BMP280;11303;50.772;19.670;2023-12-20T00:47:36;98254.75;;;3.97
22269;BMP280;11303;50.772;19.670;2023-12-20T00:49:37;98256.13;;;3.95
22269;BMP280;11303;50.772;19.670;2023-12-20T00:51:39;98253.25;;;3.96
22269;BMP280;11303;50.772;19.670;2023-12-20T00:53:41;98244.31;;;3.94
22269;BMP280;11303;50.772;19.670;2023-12-20T00:55:42;98248.25;;;3.91
22269;BMP280;11303;50.772;19.670;2023-12-20T00:57:45;98244.63;;;3.92
22269;BMP280;11303;50.772;19.670;2023-12-20T00:59:48;98245.69;;;3.91
22269;BMP280;11303;50.772;19.670;2023-12-20T01:01:49;98237.50;;;3.89
22269;BMP280;11303;50.772;19.670;2023-12-20T01:03:51;98241.13;;;3.88
22269;BMP280;11303;50.772;19.670;2023-12-20T01:05:53;98228.56;;;3.87
22269;BMP280;11303;50.772;19.670;2023-12-20T01:07:54;98229.66;;;3.86
22269;BMP280;11303;50.772;19.670;2023-12-20T01:09:56;98240.69;;;3.86
22269;BMP280;11303;50.772;19.670;2023-12-20T01:11:58;98238.13;;;3.86
22269;BMP280;11303;50.772;19.670;2023-12-20T01:13:59;98235.84;;;3.85
22269;BMP280;11303;50.772;19.670;2023-12-20T01:16:01;98229.94;;;3.84
22269;BMP280;11303;50.772;19.670;2023-12-20T01:18:03;98230.25;;;3.82
22269;BMP280;11303;50.772;19.670;2023-12-20T01:20:05;98233.13;;;3.81
22269;BMP280;11303;50.772;19.670;2023-12-20T01:22:07;98222.84;;;3.81
22269;BMP280;11303;50.772;19.670;2023-12-20T01:24:09;98213.00;;;3.83
22269;BMP280;11303;50.772;19.670;2023-12-20T01:26:11;98219.97;;;3.82
22269;BMP280;11303;50.772;19.670;2023-12-20T01:28:13;98210.28;;;3.79
22269;BMP280;11303;50.772;19.670;2023-12-20T01:30:15;98204.69;;;3.77
22269;BMP280;11303;50.772;19.670;2023-12-20T01:32:16;98197.44;;;3.79
22269;BMP280;11303;50.772;19.670;2023-12-20T01:34:18;98194.09;;;3.79
22269;BMP280;11303;50.772;19.670;2023-12-20T01:36:20;98194.09;;;3.79
22269;BMP280;11303;50.772;19.670;2023-12-20T01:38:22;98182.31;;;3.78
22269;BMP280;11303;50.772;19.670;2023-12-20T01:40:23;98176.72;;;3.76
22269;BMP280;11303;50.772;19.670;2023-12-20T01:42:25;98177.00;;;3.74
22269;BMP280;11303;50.772;19.670;2023-12-20T01:44:27;98189.13;;;3.74
22269;BMP280;11303;50.772;19.670;2023-12-20T01:46:29;98163.41;;;3.74
22269;BMP280;11303;50.772;19.670;2023-12-20T01:48:31;98164.16;;;3.74
22269;BMP280;11303;50.772;19.670;2023-12-20T01:50:36;98148.59;;;3.71
22269;BMP280;11303;50.772;19.670;2023-12-20T01:52:39;98154.19;;;3.73
22269;BMP280;11303;50.772;19.670;2023-12-20T01:54:42;98150.41;;;3.70
22269;BMP280;11303;50.772;19.670;2023-12-20T01:56:43;98150.84;;;3.72
22269;BMP280;11303;50.772;19.670;2023-12-20T01:58:46;98141.63;;;3.71
22269;BMP280;11303;50.772;19.670;2023-12-20T02:00:49;98130.91;;;3.69
22269;BMP280;11303;50.772;19.670;2023-12-20T02:02:53;98138.59;;;3.69
22269;BMP280;11303;50.772;19.670;2023-12-20T02:04:54;98135.75;;;3.71
22269;BMP280;11303;50.772;19.670;2023-12-20T02:06:57;98126.19;;;3.71
22269;BMP280;11303;50.772;19.670;2023-12-20T02:09:00;98133.16;;;3.71
22269;BMP280;11303;50.772;19.670;2023-12-20T02:11:02;98140.44;;;3.69
22269;BMP280;11303;50.772;19.670;2023-12-20T02:13:04;98134.69;;;3.72
22269;BMP280;11303;50.772;19.670;2023-12-20T02:15:06;98133.16;;;3.71
22269;BMP280;11303;50.772;19.670;2023-12-20T02:17:08;98133.91;;;3.71
22269;BMP280;11303;50.772;19.670;2023-12-20T02:19:13;98130.28;;;3.72
22269;BMP280;11303;50.772;19.670;2023-12-20T02:21:16;98132.41;;;3.70
22269;BMP280;11303;50.772;19.670;2023-12-20T02:23:17;98122.13;;;3.70
22269;BMP280;11303;50.772;19.670;2023-12-20T02:25:19;98125.44;;;3.71
22269;BMP280;11303;50.772;19.670;2023-12-20T02:27:22;98130.59;;;3.71
22269;BMP280;11303;50.772;19.670;2023-12-20T02:29:24;98121.06;;;3.71
22269;BMP280;11303;50.772;19.670;2023-12-20T02:31:26;98130.59;;;3.71
22269;BMP280;11303;50.772;19.670;2023-12-20T02:33:28;98122.13;;;3.70
22269;BMP280;11303;50.772;19.670;2023-12-20T02:35:30;98115.19;;;3.71
22269;BMP280;11303;50.772;19.670;2023-12-20T02:37:32;98106.72;;;3.70
22269;BMP280;11303;50.772;19.670;2023-12-20T02:39:34;98103.06;;;3.71
22269;BMP280;11303;50.772;19.670;2023-12-20T02:41:36;98092.78;;;3.71
22269;BMP280;11303;50.772;19.670;2023-12-20T02:43:37;98107.47;;;3.71
22269;BMP280;11303;50.772;19.670;2023-12-20T02:45:39;98114.13;;;3.72
22269;BMP280;11303;50.772;19.670;2023-12-20T02:47:41;98110.47;;;3.73
22269;BMP280;11303;50.772;19.670;2023-12-20T02:49:43;98105.63;;;3.71
22269;BMP280;11303;50.772;19.670;2023-12-20T02:51:44;98103.84;;;3.72
22269;BMP280;11303;50.772;19.670;2023-12-20T02:53:46;98106.13;;;3.73
22269;BMP280;11303;50.772;19.670;2023-12-20T02:55:48;98096.88;;;3.72
22269;BMP280;11303;50.772;19.670;2023-12-20T02:57:49;98102.03;;;3.72
22269;BMP280;11303;50.772;19.670;2023-12-20T02:59:51;98113.06;;;3.73
22269;BMP280;11303;50.772;19.670;2023-12-20T03:01:53;98103.06;;;3.71
22269;BMP280;11303;50.772;19.670;2023-12-20T03:03:54;98104.59;;;3.72
22269;BMP280;11303;50.772;19.670;2023-12-20T03:05:56;98104.59;;;3.72
22269;BMP280;11303;50.772;19.670;2023-12-20T03:07:58;98100.19;;;3.73
22269;BMP280;11303;50.772;19.670;2023-12-20T03:09:59;98090.69;;;3.73
22269;BMP280;11303;50.772;19.670;2023-12-20T03:12:20;98097.63;;;3.73
22269;BMP280;11303;50.772;19.670;2023-12-20T03:14:21;98093.88;;;3.70
22269;BMP280;11303;50.772;19.670;2023-12-20T03:16:23;98091.28;;;3.70
22269;BMP280;11303;50.772;19.670;2023-12-20T03:18:25;98095.34;;;3.71
22269;BMP280;11303;50.772;19.670;2023-12-20T03:20:29;98096.13;;;3.72
22269;BMP280;11303;50.772;19.670;2023-12-20T03:22:34;98096.88;;;3.72
22269;BMP280;11303;50.772;19.670;2023-12-20T03:24:36;98094.31;;;3.72
22269;BMP280;11303;50.772;19.670;2023-12-20T03:26:38;98092.19;;;3.74
22269;BMP280;11303;50.772;19.670;2023-12-20T03:28:40;98094.00;;;3.74
22269;BMP280;11303;50.772;19.670;2023-12-20T03:30:41;98084.47;;;3.74
22269;BMP280;11303;50.772;19.670;2023-12-20T03:32:43;98078.59;;;3.74
22269;BMP280;11303;50.772;19.670;2023-12-20T03:34:45;98081.59;;;3.76
22269;BMP280;11303;50.772;19.670;2023-12-20T03:36:47;98084.63;;;3.78
22269;BMP280;11303;50.772;19.670;2023-12-20T03:38:49;98080.22;;;3.78
22269;BMP280;11303;50.772;19.670;2023-12-20T03:40:51;98079.91;;;3.80
22269;BMP280;11303;50.772;19.670;2023-12-20T03:42:52;98080.66;;;3.80
22269;BMP280;11303;50.772;19.670;2023-12-20T03:44:54;98077.03;;;3.81
22269;BMP280;11303;50.772;19.670;2023-12-20T03:46:56;98078.56;;;3.82
22269;BMP280;11303;50.772;19.670;2023-12-20T03:48:58;98081.56;;;3.85
22269;BMP280;11303;50.772;19.670;2023-12-20T03:51:02;98083.09;;;3.86
22269;BMP280;11303;50.772;19.670;2023-12-20T03:53:04;98089.44;;;3.88
22269;BMP280;11303;50.772;19.670;2023-12-20T03:55:06;98090.22;;;3.89
22269;BMP280;11303;50.772;19.670;2023-12-20T03:57:08;98091.25;;;3.88
22269;BMP280;11303;50.772;19.670;2023-12-20T03:59:09;98088.38;;;3.89
22269;BMP280;11303;50.772;19.670;2023-12-20T04:01:11;98095.78;;;3.91
22269;BMP280;11303;50.772;19.670;2023-12-20T04:03:15;98092.16;;;3.92
22269;BMP280;11303;50.772;19.670;2023-12-20T04:05:17;98088.53;;;3.93
22269;BMP280;11303;50.772;19.670;2023-12-20T04:07:19;98084.16;;;3.93
22269;BMP280;11303;50.772;19.670;2023-12-20T04:09:21;98070.53;;;3.93
22269;BMP280;11303;50.772;19.670;2023-12-20T04:11:22;98077.19;;;3.94
22269;BMP280;11303;50.772;19.670;2023-12-20T04:13:24;98082.63;;;3.92
22269;BMP280;11303;50.772;19.670;2023-12-20T04:15:26;98079.31;;;3.92
22269;BMP280;11303;50.772;19.670;2023-12-20T04:17:27;98087.03;;;3.92
22269;BMP280;11303;50.772;19.670;2023-12-20T04:19:29;98081.88;;;3.92
22269;BMP280;11303;50.772;19.670;2023-12-20T04:21:31;98086.72;;;3.93
22269;BMP280;11303;50.772;19.670;2023-12-20T04:23:33;98095.03;;;3.90
22269;BMP280;11303;50.772;19.670;2023-12-20T04:25:34;98099.09;;;3.91
22269;BMP280;11303;50.772;19.670;2023-12-20T04:27:36;98092.47;;;3.90
22269;BMP280;11303;50.772;19.670;2023-12-20T04:29:38;98088.38;;;3.89
22269;BMP280;11303;50.772;19.670;2023-12-20T04:31:39;98091.69;;;3.90
22269;BMP280;11303;50.772;19.670;2023-12-20T04:33:41;98091.41;;;3.91
22269;BMP280;11303;50.772;19.670;2023-12-20T04:35:43;98090.66;;;3.91
22269;BMP280;11303;50.772;19.670;2023-12-20T04:37:44;98085.81;;;3.89
22269;BMP280;11303;50.772;19.670;2023-12-20T04:39:46;98082.50;;;3.89
22269;BMP280;11303;50.772;19.670;2023-12-20T04:41:48;98088.38;;;3.89
22269;BMP280;11303;50.772;19.670;2023-12-20T04:43:50;98084.28;;;3.88
22269;BMP280;11303;50.772;19.670;2023-12-20T04:45:52;98097.16;;;3.88
22269;BMP280;11303;50.772;19.670;2023-12-20T04:47:55;98084.28;;;3.88
22269;BMP280;11303;50.772;19.670;2023-12-20T04:49:56;98089.44;;;3.88
22269;BMP280;11303;50.772;19.670;2023-12-20T04:51:58;98089.72;;;3.87
22269;BMP280;11303;50.772;19.670;2023-12-20T04:54:01;98090.22;;;3.89
22269;BMP280;11303;50.772;19.670;2023-12-20T04:56:02;98082.50;;;3.89
22269;BMP280;11303;50.772;19.670;2023-12-20T04:58:04;98088.38;;;3.89
22269;BMP280;11303;50.772;19.670;2023-12-20T05:00:06;98089.91;;;3.90
22269;BMP280;11303;50.772;19.670;2023-12-20T05:02:09;98089.13;;;3.90
22269;BMP280;11303;50.772;19.670;2023-12-20T05:04:11;98088.38;;;3.89
22269;BMP280;11303;50.772;19.670;2023-12-20T05:06:13;98090.94;;;3.89
22269;BMP280;11303;50.772;19.670;2023-12-20T05:08:14;98082.94;;;3.91
22269;BMP280;11303;50.772;19.670;2023-12-20T05:10:17;98092.00;;;3.88
22269;BMP280;11303;50.772;19.670;2023-12-20T05:12:19;98088.38;;;3.89
22269;BMP280;11303;50.772;19.670;2023-12-20T05:14:20;98085.06;;;3.89
22269;BMP280;11303;50.772;19.670;2023-12-20T05:16:22;98086.13;;;3.88
22269;BMP280;11303;50.772;19.670;2023-12-20T05:18:24;98088.38;;;3.89
22269;BMP280;11303;50.772;19.670;2023-12-20T05:20:25;98083.53;;;3.88
22269;BMP280;11303;50.772;19.670;2023-12-20T05:22:27;98076.88;;;3.87
22269;BMP280;11303;50.772;19.670;2023-12-20T05:24:29;98086.84;;;3.88
22269;BMP280;11303;50.772;19.670;2023-12-20T05:26:31;98080.53;;;3.86
22269;BMP280;11303;50.772;19.670;2023-12-20T05:28:32;98088.97;;;3.86
22269;BMP280;11303;50.772;19.670;2023-12-20T05:30:34;98081.28;;;3.86
22269;BMP280;11303;50.772;19.670;2023-12-20T05:32:36;98080.53;;;3.86
22269;BMP280;11303;50.772;19.670;2023-12-20T05:34:38;98086.13;;;3.88
22269;BMP280;11303;50.772;19.670;2023-12-20T05:36:39;98084.28;;;3.88
22269;BMP280;11303;50.772;19.670;2023-12-20T05:38:41;98078.69;;;3.86
22269;BMP280;11303;50.772;19.670;2023-12-20T05:40:43;98084.59;;;3.87
22269;BMP280;11303;50.772;19.670;2023-12-20T05:42:44;98071.72;;;3.87
22269;BMP280;11303;50.772;19.670;2023-12-20T05:44:46;98075.81;;;3.88
22269;BMP280;11303;50.772;19.670;2023-12-20T05:46:50;98074.31;;;3.87
22269;BMP280;11303;50.772;19.670;2023-12-20T05:48:52;98063.28;;;3.86
22269;BMP280;11303;50.772;19.670;2023-12-20T05:50:53;98077.97;;;3.86
22269;BMP280;11303;50.772;19.670;2023-12-20T05:52:55;98073.13;;;3.84
22269;BMP280;11303;50.772;19.670;2023-12-20T05:54:56;98063.56;;;3.85
22269;BMP280;11303;50.772;19.670;2023-12-20T05:57:02;98062.84;;;3.84
22269;BMP280;11303;50.772;19.670;2023-12-20T05:59:04;98056.91;;;3.83
22269;BMP280;11303;50.772;19.670;2023-12-20T06:01:05;98056.16;;;3.83
22269;BMP280;11303;50.772;19.670;2023-12-20T06:03:09;98047.25;;;3.80
22269;BMP280;11303;50.772;19.670;2023-12-20T06:05:10;98049.50;;;3.82
22269;BMP280;11303;50.772;19.670;2023-12-20T06:07:12;98044.38;;;3.82
22269;BMP280;11303;50.772;19.670;2023-12-20T06:09:14;98048.00;;;3.81
22269;BMP280;11303;50.772;19.670;2023-12-20T06:11:17;98042.88;;;3.81
22269;BMP280;11303;50.772;19.670;2023-12-20T06:13:18;98052.38;;;3.80
22269;BMP280;11303;50.772;19.670;2023-12-20T06:15:20;98044.22;;;3.78
22269;BMP280;11303;50.772;19.670;2023-12-20T06:17:22;98051.22;;;3.78
22269;BMP280;11303;50.772;19.670;2023-12-20T06:19:23;98047.53;;;3.79
22269;BMP280;11303;50.772;19.670;2023-12-20T06:21:25;98059.25;;;3.76
22269;BMP280;11303;50.772;19.670;2023-12-20T06:23:27;98056.66;;;3.76
22269;BMP280;11303;50.772;19.670;2023-12-20T06:25:29;98062.56;;;3.77
22269;BMP280;11303;50.772;19.670;2023-12-20T06:27:31;98055.88;;;3.76
22269;BMP280;11303;50.772;19.670;2023-12-20T06:29:34;98047.44;;;3.75
22269;BMP280;11303;50.772;19.670;2023-12-20T06:31:36;98050.00;;;3.75
22269;BMP280;11303;50.772;19.670;2023-12-20T06:33:38;98049.25;;;3.75
22269;BMP280;11303;50.772;19.670;2023-12-20T06:35:42;98058.75;;;3.74
22269;BMP280;11303;50.772;19.670;2023-12-20T06:37:44;98051.34;;;3.73
22269;BMP280;11303;50.772;19.670;2023-12-20T06:39:46;98063.16;;;3.74
22269;BMP280;11303;50.772;19.670;2023-12-20T06:41:48;98061.63;;;3.73
22269;BMP280;11303;50.772;19.670;2023-12-20T06:43:49;98058.31;;;3.72
22269;BMP280;11303;50.772;19.670;2023-12-20T06:45:51;98062.72;;;3.72
22269;BMP280;11303;50.772;19.670;2023-12-20T06:47:53;98068.91;;;3.71
22269;BMP280;11303;50.772;19.670;2023-12-20T06:49:56;98063.47;;;3.72
22269;BMP280;11303;50.772;19.670;2023-12-20T06:51:58;98066.34;;;3.71
22269;BMP280;11303;50.772;19.670;2023-12-20T06:53:59;98063.03;;;3.70
22269;BMP280;11303;50.772;19.670;2023-12-20T06:56:01;98058.94;;;3.69
22269;BMP280;11303;50.772;19.670;2023-12-20T06:58:04;98062.53;;;3.68
22269;BMP280;11303;50.772;19.670;2023-12-20T07:00:06;98067.69;;;3.68
22269;BMP280;11303;50.772;19.670;2023-12-20T07:02:08;98071.34;;;3.67
22269;BMP280;11303;50.772;19.670;2023-12-20T07:04:16;98066.19;;;3.67
22269;BMP280;11303;50.772;19.670;2023-12-20T07:06:22;98074.22;;;3.66
22269;BMP280;11303;50.772;19.670;2023-12-20T07:08:26;98072.69;;;3.64
22269;BMP280;11303;50.772;19.670;2023-12-20T07:10:29;98076.31;;;3.63
22269;BMP280;11303;50.772;19.670;2023-12-20T07:12:30;98074.50;;;3.64
22269;BMP280;11303;50.772;19.670;2023-12-20T07:14:32;98082.97;;;3.64
22269;BMP280;11303;50.772;19.670;2023-12-20T07:16:34;98086.75;;;3.67
22269;BMP280;11303;50.772;19.670;2023-12-20T07:18:36;98085.97;;;3.67
22269;BMP280;11303;50.772;19.670;2023-12-20T07:20:38;98088.84;;;3.65
22269;BMP280;11303;50.772;19.670;2023-12-20T07:22:39;98091.13;;;3.67
22269;BMP280;11303;50.772;19.670;2023-12-20T07:24:41;98089.63;;;3.66
22269;BMP280;11303;50.772;19.670;2023-12-20T07:26:42;98094.47;;;3.67
22269;BMP280;11303;50.772;19.670;2023-12-20T07:28:44;98094.47;;;3.67
22269;BMP280;11303;50.772;19.670;2023-12-20T07:30:46;98095.97;;;3.68
22269;BMP280;11303;50.772;19.670;2023-12-20T07:32:48;98093.38;;;3.68
22269;BMP280;11303;50.772;19.670;2023-12-20T07:34:49;98092.34;;;3.69
22269;BMP280;11303;50.772;19.670;2023-12-20T07:36:51;98094.47;;;3.67
22269;BMP280;11303;50.772;19.670;2023-12-20T07:38:53;98094.16;;;3.69
22269;BMP280;11303;50.772;19.670;2023-12-20T07:40:54;98091.28;;;3.70
22269;BMP280;11303;50.772;19.670;2023-12-20T07:42:56;98094.31;;;3.72
22269;BMP280;11303;50.772;19.670;2023-12-20T07:44:59;98094.44;;;3.76
22269;BMP280;11303;50.772;19.670;2023-12-20T07:47:01;98094.44;;;3.76
22269;BMP280;11303;50.772;19.670;2023-12-20T07:49:03;98091.13;;;3.75
22269;BMP280;11303;50.772;19.670;2023-12-20T07:51:05;98095.06;;;3.73
22269;BMP280;11303;50.772;19.670;2023-12-20T07:53:11;98094.00;;;3.74
22269;BMP280;11303;50.772;19.670;2023-12-20T07:55:13;98084.03;;;3.72
22269;BMP280;11303;50.772;19.670;2023-12-20T07:57:14;98085.84;;;3.72
22269;BMP280;11303;50.772;19.670;2023-12-20T07:59:16;98091.13;;;3.75
22269;BMP280;11303;50.772;19.670;2023-12-20T08:01:30;98090.09;;;3.76
22269;BMP280;11303;50.772;19.670;2023-12-20T08:03:32;98092.66;;;3.76
22269;BMP280;11303;50.772;19.670;2023-12-20T08:05:33;98095.22;;;3.76
22269;BMP280;11303;50.772;19.670;2023-12-20T08:07:35;98089.16;;;3.72
22269;BMP280;11303;50.772;19.670;2023-12-20T08:09:36;98091.00;;;3.72
22269;BMP280;11303;50.772;19.670;2023-12-20T08:11:38;98089.91;;;3.73
22269;BMP280;11303;50.772;19.670;2023-12-20T08:13:40;98086.91;;;3.71
22269;BMP280;11303;50.772;19.670;2023-12-20T08:15:41;98092.47;;;3.73
22269;BMP280;11303;50.772;19.670;2023-12-20T08:17:43;98090.38;;;3.75
22269;BMP280;11303;50.772;19.670;2023-12-20T08:19:46;98093.88;;;3.70
22269;BMP280;11303;50.772;19.670;2023-12-20T08:21:47;98092.78;;;3.71
22269;BMP280;11303;50.772;19.670;2023-12-20T08:23:49;98095.34;;;3.71
22269;BMP280;11303;50.772;19.670;2023-12-20T08:25:51;98091.13;;;3.67
22269;BMP280;11303;50.772;19.670;2023-12-20T08:27:52;98089.63;;;3.66
22269;BMP280;11303;50.772;19.670;2023-12-20T08:29:54;98089.94;;;3.64
22269;BMP280;11303;50.772;19.670;2023-12-20T08:31:56;98093.56;;;3.63
22269;BMP280;11303;50.772;19.670;2023-12-20T08:33:58;98087.97;;;3.61
22269;BMP280;11303;50.772;19.670;2023-12-20T08:35:59;98092.94;;;3.57
22269;BMP280;11303;50.772;19.670;2023-12-20T08:38:01;98089.47;;;3.53
22269;BMP280;11303;50.772;19.670;2023-12-20T08:40:03;98089.81;;;3.52
22269;BMP280;11303;50.772;19.670;2023-12-20T08:42:05;98092.38;;;3.52
22269;BMP280;11303;50.772;19.670;2023-12-20T08:44:07;98105.22;;;3.52
22269;BMP280;11303;50.772;19.670;2023-12-20T08:46:08;98097.03;;;3.50
22269;BMP280;11303;50.772;19.670;2023-12-20T08:48:13;98094.47;;;3.50
22269;BMP280;11303;50.772;19.670;2023-12-20T08:50:15;98101.72;;;3.48
22269;BMP280;11303;50.772;19.670;2023-12-20T08:52:17;98099.00;;;3.44
22269;BMP280;11303;50.772;19.670;2023-12-20T08:54:19;98093.56;;;3.45
22269;BMP280;11303;50.772;19.670;2023-12-20T08:56:21;98106.72;;;3.44
22269;BMP280;11303;50.772;19.670;2023-12-20T08:58:22;98102.31;;;3.44
22269;BMP280;11303;50.772;19.670;2023-12-20T09:00:24;98106.53;;;3.40
22269;BMP280;11303;50.772;19.670;2023-12-20T09:02:29;98105.34;;;3.38
22269;BMP280;11303;50.772;19.670;2023-12-20T09:04:30;98101.56;;;3.35
22269;BMP280;11303;50.772;19.670;2023-12-20T09:06:32;98104.13;;;3.35
22269;BMP280;11303;50.772;19.670;2023-12-20T09:08:34;98105.94;;;3.35
22269;BMP280;11303;50.772;19.670;2023-12-20T09:10:36;98106.41;;;3.37
22269;BMP280;11303;50.772;19.670;2023-12-20T09:12:38;98101.69;;;3.39
22269;BMP280;11303;50.772;19.670;2023-12-20T09:14:42;98100.06;;;3.43
22269;BMP280;11303;50.772;19.670;2023-12-20T09:16:44;98100.81;;;3.43
22269;BMP280;11303;50.772;19.670;2023-12-20T09:18:45;98104.16;;;3.44
22269;BMP280;11303;50.772;19.670;2023-12-20T09:20:47;98102.19;;;3.41
22269;BMP280;11303;50.772;19.670;2023-12-20T09:22:49;98099.13;;;3.39
22269;BMP280;11303;50.772;19.670;2023-12-20T09:24:51;98100.97;;;3.38
22269;BMP280;11303;50.772;19.670;2023-12-20T09:26:52;98104.28;;;3.39
22269;BMP280;11303;50.772;19.670;2023-12-20T09:28:54;98099.13;;;3.39
22269;BMP280;11303;50.772;19.670;2023-12-20T09:30:55;98102.31;;;3.44
22269;BMP280;11303;50.772;19.670;2023-12-20T09:32:58;98091.75;;;3.46
22269;BMP280;11303;50.772;19.670;2023-12-20T09:35:00;98087.06;;;3.39
22269;BMP280;11303;50.772;19.670;2023-12-20T09:37:02;98089.16;;;3.37
22269;BMP280;11303;50.772;19.670;2023-12-20T09:39:05;98085.41;;;3.35
22269;BMP280;11303;50.772;19.670;2023-12-20T09:41:07;98078.88;;;3.37
22269;BMP280;11303;50.772;19.670;2023-12-20T09:43:14;98074.50;;;3.38
22269;BMP280;11303;50.772;19.670;2023-12-20T09:45:20;98082.22;;;3.38
22269;BMP280;11303;50.772;19.670;2023-12-20T09:47:23;98080.69;;;3.37
22269;BMP280;11303;50.772;19.670;2023-12-20T09:49:27;98071.94;;;3.38
22269;BMP280;11303;50.772;19.670;2023-12-20T09:51:29;98067.69;;;3.42
22269;BMP280;11303;50.772;19.670;2023-12-20T09:53:33;98068.19;;;3.44
22269;BMP280;11303;50.772;19.670;2023-12-20T09:55:36;98072.25;;;3.45
22269;BMP280;11303;50.772;19.670;2023-12-20T09:57:39;98063.47;;;3.46
22269;BMP280;11303;50.772;19.670;2023-12-20T09:59:41;98070.59;;;3.49
22269;BMP280;11303;50.772;19.670;2023-12-20T10:01:43;98072.09;;;3.50
22269;BMP280;11303;50.772;19.670;2023-12-20T10:03:45;98066.19;;;3.50
22269;BMP280;11303;50.772;19.670;2023-12-20T10:05:47;98065.16;;;3.51
22269;BMP280;11303;50.772;19.670;2023-12-20T10:07:51;98064.69;;;3.49
22269;BMP280;11303;50.772;19.670;2023-12-20T10:09:54;98062.13;;;3.49
22269;BMP280;11303;50.772;19.670;2023-12-20T10:11:57;98059.09;;;3.46
22269;BMP280;11303;50.772;19.670;2023-12-20T10:13:59;98055.03;;;3.45
22269;BMP280;11303;50.772;19.670;2023-12-20T10:16:04;98060.91;;;3.46
22269;BMP280;11303;50.772;19.670;2023-12-20T10:18:07;98055.03;;;3.45
22269;BMP280;11303;50.772;19.670;2023-12-20T10:20:10;98046.72;;;3.49
22269;BMP280;11303;50.772;19.670;2023-12-20T10:22:11;98060.16;;;3.45
22269;BMP280;11303;50.772;19.670;2023-12-20T10:24:17;98060.47;;;3.44
22269;BMP280;11303;50.772;19.670;2023-12-20T10:26:23;98069.06;;;3.48
22269;BMP280;11303;50.772;19.670;2023-12-20T10:28:26;98061.84;;;3.50
22269;BMP280;11303;50.772;19.670;2023-12-20T10:30:30;98068.78;;;3.50
22269;BMP280;11303;50.772;19.670;2023-12-20T10:32:32;98062.88;;;3.49
22269;BMP280;11303;50.772;19.670;2023-12-20T10:34:34;98068.03;;;3.49
22269;BMP280;11303;50.772;19.670;2023-12-20T10:36:36;98058.03;;;3.48
22269;BMP280;11303;50.772;19.670;2023-12-20T10:38:39;98058.66;;;3.44
22269;BMP280;11303;50.772;19.670;2023-12-20T10:40:45;98061.81;;;3.41
22269;BMP280;11303;50.772;19.670;2023-12-20T10:42:48;98063.34;;;3.42
22269;BMP280;11303;50.772;19.670;2023-12-20T10:44:50;98049.41;;;3.43
22269;BMP280;11303;50.772;19.670;2023-12-20T10:46:52;98054.41;;;3.40
22269;BMP280;11303;50.772;19.670;2023-12-20T10:49:02;98050.19;;;3.35
22269;BMP280;11303;50.772;19.670;2023-12-20T10:51:04;98056.50;;;3.29
22269;BMP280;11303;50.772;19.670;2023-12-20T10:53:07;98058.34;;;3.28
22269;BMP280;11303;50.772;19.670;2023-12-20T10:55:08;98066.50;;;3.31
22269;BMP280;11303;50.772;19.670;2023-12-20T10:57:11;98065.44;;;3.32
22269;BMP280;11303;50.772;19.670;2023-12-20T10:59:14;98063.47;;;3.28
22269;BMP280;11303;50.772;19.670;2023-12-20T11:01:18;98056.69;;;3.24
22269;BMP280;11303;50.772;19.670;2023-12-20T11:03:20;98059.56;;;3.22
22269;BMP280;11303;50.772;19.670;2023-12-20T11:05:45;98050.63;;;3.20
22269;BMP280;11303;50.772;19.670;2023-12-20T11:07:56;98052.16;;;3.21
22269;BMP280;11303;50.772;19.670;2023-12-20T11:12:41;98049.41;;;3.17
22269;BMP280;11303;50.772;19.670;2023-12-20T11:14:47;98047.91;;;3.16
22269;BMP280;11303;50.772;19.670;2023-12-20T11:16:49;98045.78;;;3.18
22269;BMP280;11303;50.772;19.670;2023-12-20T11:18:56;98046.09;;;3.17
22269;BMP280;11303;50.772;19.670;2023-12-20T11:21:06;98043.69;;;3.20
22269;BMP280;11303;50.772;19.670;2023-12-20T11:23:09;98033.41;;;3.20
22269;BMP280;11303;50.772;19.670;2023-12-20T11:25:11;98035.69;;;3.22
22269;BMP280;11303;50.772;19.670;2023-12-20T11:27:14;98037.34;;;3.18
22269;BMP280;11303;50.772;19.670;2023-12-20T11:29:37;98032.19;;;3.26
22269;BMP280;11303;50.772;19.670;2023-12-20T11:31:42;98027.66;;;3.23
22269;BMP280;11303;50.772;19.670;2023-12-20T11:33:44;98033.41;;;3.29
22269;BMP280;11303;50.772;19.670;2023-12-20T11:35:49;98034.47;;;3.37
22269;BMP280;11303;50.772;19.670;2023-12-20T11:37:51;98029.03;;;3.38
22269;BMP280;11303;50.772;19.670;2023-12-20T11:39:56;98031.16;;;3.36
22269;BMP280;11303;50.772;19.670;2023-12-20T11:42:05;98032.34;;;3.39
22269;BMP280;11303;50.772;19.670;2023-12-20T11:44:08;98023.88;;;3.38
22269;BMP280;11303;50.772;19.670;2023-12-20T11:46:10;98027.34;;;3.34
22269;BMP280;11303;50.772;19.670;2023-12-20T11:48:12;98028.41;;;3.33